Time;durP1;ratioP1;P1;durP2;ratioP2;P2;SDS_P1;SDS_P2;PMS_P1;PMS_P2;Temp;Humidity;BMP_temperature;BMP_pressure;BME280_temperature;BME280_humidity;BME280_pressure;Samples;Min_cycle;Max_cycle;Signal;HPM_P1;HPM_P2
2022/11/06 00:01:23;;;;;;;28.92;18.02;;;3.30;99.90;;;;;;5088170;28;20036;-69
2022/11/06 00:03:52;;;;;;;32.30;18.73;;;3.30;99.90;;;;;;5090647;28;20024;-70
2022/11/06 00:09:06;;;;;;;31.98;19.15;;;3.30;99.90;;;;;;5090873;28;20377;-71
2022/11/06 00:11:32;;;;;;;32.30;19.00;;;3.20;99.90;;;;;;5089903;28;20067;-70
2022/11/06 00:13:59;;;;;;;37.47;19.70;;;3.20;99.90;;;;;;5090556;28;20402;-70
2022/11/06 00:16:25;;;;;;;31.15;19.17;;;3.10;99.90;;;;;;5071371;28;20443;-70
2022/11/06 00:18:51;;;;;;;35.75;21.65;;;3.10;99.90;;;;;;5090568;28;20021;-70
2022/11/06 00:21:27;;;;;;;37.15;21.98;;;3.20;99.90;;;;;;5088790;28;20034;-71
2022/11/06 00:23:55;;;;;;;40.33;21.42;;;3.20;99.90;;;;;;5089131;28;20031;-71
2022/11/06 00:26:23;;;;;;;38.58;20.88;;;3.30;99.90;;;;;;5088335;28;20035;-70
2022/11/06 00:28:49;;;;;;;33.00;19.17;;;3.40;99.90;;;;;;5083422;28;20032;-69
2022/11/06 00:31:20;;;;;;;41.15;21.27;;;3.40;99.90;;;;;;5087873;28;20125;-70
2022/11/06 00:33:46;;;;;;;37.92;21.02;;;3.40;99.90;;;;;;5084109;28;20429;-70
2022/11/06 00:36:15;;;;;;;42.35;22.00;;;3.40;99.90;;;;;;5089101;28;20500;-74
2022/11/06 00:38:41;;;;;;;37.55;20.67;;;3.50;99.90;;;;;;5089988;28;20028;-74
2022/11/06 00:41:12;;;;;;;32.53;19.65;;;3.50;99.90;;;;;;5088840;28;20044;-71
2022/11/06 00:43:38;;;;;;;34.90;19.85;;;3.50;99.90;;;;;;5072351;28;20107;-70
2022/11/06 00:46:09;;;;;;;36.85;20.75;;;3.40;99.90;;;;;;5090226;28;20417;-70
2022/11/06 00:48:36;;;;;;;35.55;19.30;;;3.40;99.90;;;;;;5092382;28;20442;-70
2022/11/06 00:51:02;;;;;;;41.55;22.25;;;3.30;99.90;;;;;;5094011;28;20047;-70
2022/11/06 00:53:28;;;;;;;35.22;20.70;;;3.30;99.90;;;;;;5093365;28;20126;-70
2022/11/06 00:55:53;;;;;;;37.60;22.95;;;3.20;99.90;;;;;;5092811;28;20115;-70
2022/11/06 00:58:19;;;;;;;36.47;20.75;;;3.20;99.90;;;;;;5091809;28;20035;-70
2022/11/06 01:00:45;;;;;;;37.38;21.15;;;3.10;99.90;;;;;;5093642;28;20036;-71
2022/11/06 01:03:10;;;;;;;36.05;20.67;;;3.10;99.90;;;;;;5093176;28;20552;-74
2022/11/06 01:05:36;;;;;;;45.97;20.95;;;3.10;99.90;;;;;;5093230;28;20028;-70
2022/11/06 01:08:01;;;;;;;40.28;20.55;;;3.10;99.90;;;;;;5093963;28;20527;-71
2022/11/06 01:10:27;;;;;;;46.58;21.70;;;3.20;99.90;;;;;;5088946;28;20111;-71
2022/11/06 01:12:52;;;;;;;41.20;19.67;;;3.20;99.90;;;;;;5091058;28;20028;-70
2022/11/06 01:15:18;;;;;;;34.60;19.25;;;3.20;99.90;;;;;;5090398;28;20078;-71
2022/11/06 01:17:43;;;;;;;38.78;18.73;;;3.20;99.90;;;;;;5092973;28;20016;-71
2022/11/06 01:20:09;;;;;;;40.67;20.00;;;3.20;99.90;;;;;;5092958;28;20028;-74
2022/11/06 01:22:35;;;;;;;31.52;17.33;;;3.20;99.90;;;;;;5093136;28;20419;-71
2022/11/06 01:25:01;;;;;;;32.10;18.65;;;3.20;99.90;;;;;;5093281;28;20028;-71
2022/11/06 01:27:27;;;;;;;29.70;17.33;;;3.10;99.90;;;;;;5091457;28;20031;-70
2022/11/06 01:29:53;;;;;;;27.63;17.08;;;3.10;99.90;;;;;;5093149;28;20039;-71
2022/11/06 01:32:19;;;;;;;29.85;16.67;;;3.00;99.90;;;;;;5092370;28;20028;-71
2022/11/06 01:34:45;;;;;;;31.88;18.15;;;2.90;99.90;;;;;;5061233;28;20028;-71
2022/11/06 01:37:11;;;;;;;44.65;20.05;;;2.90;99.90;;;;;;5092447;28;20043;-75
2022/11/06 01:39:37;;;;;;;37.40;19.20;;;2.90;99.90;;;;;;5072941;28;20384;-71
2022/11/06 01:42:03;;;;;;;38.92;19.52;;;2.90;99.90;;;;;;5093093;28;20031;-70
2022/11/06 01:44:35;;;;;;;36.70;17.95;;;2.90;99.90;;;;;;5091255;28;20107;-71
2022/11/06 01:47:03;;;;;;;39.17;19.45;;;2.90;99.90;;;;;;5093019;28;20024;-70
2022/11/06 01:49:36;;;;;;;28.95;17.00;;;2.90;99.90;;;;;;5092031;28;20101;-70
2022/11/06 01:52:07;;;;;;;29.98;16.27;;;2.90;99.90;;;;;;5093222;28;20103;-71
2022/11/06 01:54:34;;;;;;;29.00;16.90;;;;;;;;;;5092130;28;20031;-70
2022/11/06 01:57:01;;;;;;;28.80;16.17;;;;;;;;;;5075058;28;20024;-70
2022/11/06 01:59:29;;;;;;;28.00;16.17;;;;;;;;;;5091283;28;20020;-70
2022/11/06 02:01:55;;;;;;;35.30;16.98;;;;;;;;;;5073727;28;20425;-70
2022/11/06 02:04:25;;;;;;;27.63;17.15;;;;;;;;;;5091973;28;20020;-70
2022/11/06 02:06:52;;;;;;;31.70;17.05;;;;;;;;;;5092947;28;20082;-70
2022/11/06 02:09:18;;;;;;;38.75;18.38;;;;;;;;;;5090050;28;20032;-70
2022/11/06 02:11:46;;;;;;;35.90;18.20;;;;;;;;;;5087278;28;20047;-69
2022/11/06 02:14:28;;;;;;;36.50;17.63;;;;;;;;;;5091712;28;20382;-73
2022/11/06 02:17:00;;;;;;;34.10;17.42;;;;;;;;;;5092618;28;20031;-70
2022/11/06 02:19:44;;;;;;;32.75;16.45;;;;;;;;;;5089299;28;20032;-70
2022/11/06 02:22:16;;;;;;;28.67;15.80;;;;;;;;;;5083860;28;20028;-73
2022/11/06 02:24:51;;;;;;;29.63;16.42;;;;;;;;;;5092025;28;20089;-70
2022/11/06 02:27:22;;;;;;;28.88;16.77;;;;;;;;;;5091800;28;20046;-69
2022/11/06 02:29:51;;;;;;;31.70;16.25;;;;;;;;;;5091596;28;20495;-70
2022/11/06 02:32:31;;;;;;;29.77;16.83;;;2.50;99.90;;;;;;5091769;28;20024;-70
2022/11/06 02:35:00;;;;;;;32.47;16.75;;;2.50;99.90;;;;;;5089897;28;20059;-70
2022/11/06 02:37:31;;;;;;;27.15;15.48;;;2.40;99.90;;;;;;5090882;28;20386;-70
2022/11/06 02:40:00;;;;;;;27.92;16.35;;;2.40;99.90;;;;;;5090546;28;20028;-70
2022/11/06 02:42:28;;;;;;;30.70;16.42;;;2.30;99.90;;;;;;5073154;28;20028;-69
2022/11/06 02:44:56;;;;;;;31.17;15.55;;;2.30;99.90;;;;;;5073398;28;20034;-71
2022/11/06 02:47:23;;;;;;;33.05;16.30;;;2.30;99.90;;;;;;5091260;28;20020;-70
2022/11/06 02:49:54;;;;;;;29.45;16.20;;;2.20;99.90;;;;;;5090868;28;20028;-70
2022/11/06 02:52:25;;;;;;;28.88;16.33;;;2.20;99.90;;;;;;5090035;28;20102;-70
2022/11/06 02:55:05;;;;;;;39.13;17.92;;;2.20;99.90;;;;;;5091416;28;20024;-70
2022/11/06 02:57:36;;;;;;;32.00;17.13;;;2.10;99.90;;;;;;5091250;28;20074;-69
2022/11/06 03:00:04;;;;;;;32.70;17.70;;;2.10;99.90;;;;;;5073276;28;20119;-70
2022/11/06 03:03:00;;;;;;;33.50;17.83;;;2.10;99.90;;;;;;5091125;28;20024;-70
2022/11/06 03:05:29;;;;;;;28.60;15.90;;;2.20;99.90;;;;;;5085152;28;20115;-70
2022/11/06 03:08:20;;;;;;;29.70;16.70;;;2.20;99.90;;;;;;5091690;28;20068;-69
2022/11/06 03:10:57;;;;;;;34.85;17.42;;;2.20;99.90;;;;;;5087851;28;20044;-71
2022/11/06 03:13:45;;;;;;;33.70;17.35;;;2.30;99.90;;;;;;5090504;28;20480;-71
2022/11/06 03:16:27;;;;;;;32.80;17.25;;;2.20;99.90;;;;;;5090251;28;20485;-73
2022/11/06 03:19:25;;;;;;;27.88;16.48;;;2.20;99.90;;;;;;5091581;28;20020;-69
2022/11/06 03:22:29;;;;;;;37.35;17.88;;;2.10;99.90;;;;;;5088829;28;20051;-70
2022/11/06 03:25:14;;;;;;;31.95;16.60;;;2.10;99.90;;;;;;5089768;28;20028;-71
2022/11/06 03:27:54;;;;;;;30.55;17.10;;;2.00;99.90;;;;;;5064263;28;20020;-70
2022/11/06 03:30:20;;;;;;;29.70;16.88;;;1.90;99.90;;;;;;5090397;28;20032;-71
2022/11/06 03:32:52;;;;;;;34.65;19.73;;;1.90;99.90;;;;;;5091303;28;20040;-71
2022/11/06 03:35:41;;;;;;;30.08;17.75;;;1.90;99.90;;;;;;5089731;28;20031;-71
2022/11/06 03:38:14;;;;;;;34.78;18.98;;;1.90;99.90;;;;;;5090904;28;20040;-70
2022/11/06 03:40:44;;;;;;;36.58;19.35;;;1.80;99.90;;;;;;5068284;28;20028;-70
2022/11/06 03:43:13;;;;;;;36.10;18.45;;;1.80;99.90;;;;;;5090982;28;20105;-75
2022/11/06 03:45:43;;;;;;;32.95;18.70;;;1.80;99.90;;;;;;5090706;28;20024;-70
2022/11/06 03:48:13;;;;;;;33.78;18.73;;;1.70;99.90;;;;;;5090173;28;20069;-73
2022/11/06 03:51:03;;;;;;;33.17;19.23;;;1.60;99.90;;;;;;5087667;28;20039;-70
2022/11/06 03:53:37;;;;;;;38.05;19.13;;;1.60;99.90;;;;;;5088821;28;20017;-70
2022/11/06 03:56:11;;;;;;;30.67;17.75;;;1.70;99.90;;;;;;5089257;28;20354;-70
2022/11/06 03:58:38;;;;;;;30.75;18.08;;;1.80;99.90;;;;;;5087512;28;20109;-69
2022/11/06 04:01:06;;;;;;;30.48;17.80;;;;;;;;;;5089549;28;20059;-70
2022/11/06 04:03:44;;;;;;;31.23;18.27;;;1.70;99.90;;;;;;5088828;28;20012;-70
2022/11/06 04:06:12;;;;;;;31.70;18.50;;;1.70;99.90;;;;;;5089068;28;20012;-73
2022/11/06 04:14:20;;;;;;;35.83;19.27;;;1.60;99.90;;;;;;5087009;28;20143;-69
2022/11/06 04:16:49;;;;;;;33.00;18.42;;;1.50;99.90;;;;;;5089999;28;20023;-70
2022/11/06 04:19:18;;;;;;;36.95;18.85;;;1.50;99.90;;;;;;5089978;28;20028;-70
2022/11/06 04:21:57;;;;;;;34.55;18.63;;;1.50;99.90;;;;;;5072383;28;20036;-70
2022/11/06 04:27:26;;;;;;;34.20;19.08;;;1.40;99.90;;;;;;5083511;28;20086;-71
2022/11/06 04:30:06;;;;;;;34.13;20.05;;;1.30;99.90;;;;;;5081617;28;20100;-69
2022/11/06 04:33:00;;;;;;;35.00;19.80;;;1.30;99.90;;;;;;5089652;28;20035;-71
2022/11/06 04:35:36;;;;;;;40.90;19.75;;;1.30;99.90;;;;;;5093565;28;20062;-70
2022/11/06 04:38:26;;;;;;;33.83;18.88;;;1.20;99.90;;;;;;5093912;28;20059;-70
2022/11/06 04:41:11;;;;;;;36.72;19.33;;;1.20;99.90;;;;;;5093878;28;20477;-70
2022/11/06 04:43:48;;;;;;;35.50;19.90;;;1.20;99.90;;;;;;5093088;28;20109;-70
2022/11/06 04:46:22;;;;;;;32.35;18.90;;;1.20;99.90;;;;;;5093261;28;20032;-70
2022/11/06 04:48:49;;;;;;;35.10;19.00;;;1.20;99.90;;;;;;5094324;28;20027;-70
2022/11/06 04:51:16;;;;;;;32.58;18.73;;;1.20;99.90;;;;;;5091883;28;20042;-71
2022/11/06 04:53:43;;;;;;;33.85;18.27;;;1.20;99.90;;;;;;5076231;28;20032;-69
2022/11/06 04:56:11;;;;;;;30.52;16.70;;;1.20;99.90;;;;;;5093925;28;20432;-73
2022/11/06 04:58:37;;;;;;;32.50;18.25;;;1.10;99.90;;;;;;5092557;28;20469;-70
2022/11/06 05:01:03;;;;;;;30.33;16.48;;;1.00;99.90;;;;;;5093829;28;20075;-70
2022/11/06 05:03:28;;;;;;;34.60;17.35;;;0.90;99.90;;;;;;5093557;28;20036;-70
2022/11/06 05:05:54;;;;;;;33.78;18.90;;;0.90;99.90;;;;;;5093861;28;20077;-70
2022/11/06 05:08:20;;;;;;;33.28;17.48;;;0.80;99.90;;;;;;5074361;28;20541;-70
2022/11/06 05:10:46;;;;;;;35.50;18.75;;;0.80;99.90;;;;;;5093254;28;20036;-71
2022/11/06 05:13:13;;;;;;;37.58;19.15;;;0.70;99.90;;;;;;5093602;28;20028;-73
2022/11/06 05:15:38;;;;;;;38.67;19.85;;;0.70;99.90;;;;;;5092250;28;20074;-69
2022/11/06 05:18:05;;;;;;;38.05;19.73;;;0.70;99.90;;;;;;5093997;28;20373;-70
2022/11/06 05:20:31;;;;;;;38.15;19.90;;;0.70;99.90;;;;;;5087668;28;20025;-70
2022/11/06 05:22:57;;;;;;;38.78;19.02;;;0.80;99.90;;;;;;5093512;28;20028;-71
2022/11/06 05:25:23;;;;;;;39.20;20.90;;;0.80;99.90;;;;;;5092352;28;20484;-70
2022/11/06 05:27:49;;;;;;;41.60;20.30;;;0.80;99.90;;;;;;5065814;28;20028;-70
2022/11/06 05:30:15;;;;;;;39.22;19.48;;;0.80;99.90;;;;;;5092370;28;20039;-70
2022/11/06 05:32:41;;;;;;;33.75;18.30;;;0.80;99.90;;;;;;5066016;28;20101;-70
2022/11/06 05:35:07;;;;;;;37.28;18.52;;;0.80;99.90;;;;;;5091863;28;20028;-70
2022/11/06 05:37:32;;;;;;;34.67;19.27;;;0.80;99.90;;;;;;5092335;28;20520;-69
2022/11/06 05:39:58;;;;;;;33.33;19.92;;;0.80;99.90;;;;;;5092804;28;20032;-69
2022/11/06 05:42:23;;;;;;;41.80;20.92;;;0.80;99.90;;;;;;5092742;28;20025;-70
2022/11/06 05:44:49;;;;;;;38.97;20.75;;;0.90;99.90;;;;;;5093008;28;20036;-70
2022/11/06 05:47:15;;;;;;;42.25;21.15;;;0.90;99.90;;;;;;5092332;28;20027;-70
2022/11/06 05:49:40;;;;;;;39.08;19.38;;;0.80;99.90;;;;;;5091662;28;20086;-70
2022/11/06 05:52:06;;;;;;;42.70;20.75;;;0.80;99.90;;;;;;5091775;28;20036;-69
2022/11/06 05:54:32;;;;;;;41.10;21.33;;;0.80;99.90;;;;;;5091763;28;20034;-69
2022/11/06 05:56:57;;;;;;;37.67;20.08;;;0.90;99.90;;;;;;5074996;28;20039;-70
2022/11/06 05:59:23;;;;;;;36.40;20.13;;;0.90;99.90;;;;;;5091456;28;20055;-69
2022/11/06 06:01:48;;;;;;;36.63;19.60;;;0.90;99.90;;;;;;5091406;28;20028;-70
2022/11/06 06:04:14;;;;;;;35.60;17.88;;;0.80;99.90;;;;;;5091469;28;20021;-74
2022/11/06 06:06:40;;;;;;;35.45;18.00;;;0.80;99.90;;;;;;5091626;28;20066;-70
2022/11/06 06:09:06;;;;;;;33.33;18.52;;;0.70;99.90;;;;;;5092681;28;20032;-69
2022/11/06 06:11:31;;;;;;;37.45;19.13;;;0.70;99.90;;;;;;5091687;28;20089;-70
2022/11/06 06:13:57;;;;;;;37.03;18.98;;;0.70;99.90;;;;;;5092832;28;20031;-69
2022/11/06 06:16:23;;;;;;;33.30;18.33;;;0.70;99.90;;;;;;5091651;28;20579;-69
2022/11/06 06:18:51;;;;;;;40.65;19.63;;;0.70;99.90;;;;;;5092554;28;20373;-69
2022/11/06 06:21:17;;;;;;;35.35;18.33;;;0.70;99.90;;;;;;5089987;28;20032;-70
2022/11/06 06:23:43;;;;;;;32.42;17.70;;;0.70;99.90;;;;;;5091159;28;20107;-69
2022/11/06 06:26:08;;;;;;;32.70;18.30;;;0.60;99.90;;;;;;5091562;28;20024;-72
2022/11/06 06:28:34;;;;;;;41.60;19.30;;;0.60;99.90;;;;;;5079484;28;20039;-72
2022/11/06 06:31:04;;;;;;;40.92;19.77;;;0.60;99.90;;;;;;5101837;28;20053;-70
2022/11/06 06:33:30;;;;;;;38.40;18.80;;;0.60;99.90;;;;;;5098896;28;20153;-70
2022/11/06 06:35:55;;;;;;;33.72;18.75;;;0.60;99.90;;;;;;5089268;28;20554;-70
2022/11/06 06:38:21;;;;;;;38.78;19.45;;;0.50;99.90;;;;;;5101475;28;20043;-70
2022/11/06 06:40:47;;;;;;;39.80;19.48;;;0.60;99.90;;;;;;5101902;28;20031;-70
2022/11/06 06:43:13;;;;;;;43.75;20.52;;;0.60;99.90;;;;;;5101031;28;20035;-72
2022/11/06 06:45:39;;;;;;;39.95;21.05;;;0.60;99.90;;;;;;5099629;28;20031;-70
2022/11/06 06:48:05;;;;;;;41.78;21.10;;;0.70;99.90;;;;;;5100536;28;20401;-72
2022/11/06 06:50:31;;;;;;;41.55;21.42;;;0.70;99.90;;;;;;5102522;28;20066;-70
2022/11/06 06:52:58;;;;;;;43.67;20.58;;;0.80;99.90;;;;;;5097577;28;20060;-70
2022/11/06 06:55:24;;;;;;;44.65;22.17;;;0.80;99.90;;;;;;5099658;28;20066;-70
2022/11/06 06:58:00;;;;;;;41.72;20.98;;;0.90;99.90;;;;;;5099791;28;20038;-71
2022/11/06 07:00:26;;;;;;;40.00;19.85;;;0.90;99.90;;;;;;5097877;28;20120;-71
2022/11/06 07:02:52;;;;;;;44.10;21.40;;;0.90;99.90;;;;;;5102043;28;20028;-70
2022/11/06 07:05:18;;;;;;;36.92;19.30;;;0.90;99.90;;;;;;5099237;28;20026;-71
2022/11/06 07:07:43;;;;;;;44.25;20.33;;;0.90;99.90;;;;;;5098657;28;20020;-71
2022/11/06 07:10:09;;;;;;;39.15;20.67;;;0.90;99.90;;;;;;5099056;28;20035;-74
2022/11/06 07:12:34;;;;;;;37.92;18.98;;;0.90;99.90;;;;;;5098365;28;20015;-70
2022/11/06 07:15:00;;;;;;;40.45;19.85;;;0.90;99.90;;;;;;5099954;28;20044;-71
2022/11/06 07:17:26;;;;;;;40.95;20.67;;;0.90;99.90;;;;;;5098972;28;20059;-70
2022/11/06 07:19:52;;;;;;;38.92;21.10;;;1.00;99.90;;;;;;5099005;28;20240;-70
2022/11/06 07:22:17;;;;;;;42.67;20.98;;;1.00;99.90;;;;;;5098884;28;20032;-71
2022/11/06 07:24:43;;;;;;;38.42;21.02;;;1.10;99.90;;;;;;5098339;28;20024;-70
2022/11/06 07:27:08;;;;;;;37.47;20.40;;;1.10;99.90;;;;;;5098449;28;20031;-76
2022/11/06 07:29:34;;;;;;;32.50;17.88;;;1.30;99.90;;;;;;5099138;28;20210;-70
2022/11/06 07:32:00;;;;;;;33.30;18.42;;;1.50;99.90;;;;;;5098940;28;20103;-70
2022/11/06 07:34:25;;;;;;;30.40;17.08;;;1.60;99.90;;;;;;5098631;28;20024;-71
2022/11/06 07:36:51;;;;;;;38.53;19.00;;;1.60;99.90;;;;;;5095622;28;20044;-70
2022/11/06 07:39:16;;;;;;;38.78;19.52;;;1.50;99.90;;;;;;5100515;28;20035;-70
2022/11/06 07:41:42;;;;;;;35.33;18.35;;;1.60;99.90;;;;;;5100485;28;20174;-70
2022/11/06 07:44:08;;;;;;;39.80;19.85;;;1.60;99.90;;;;;;5083356;28;20030;-70
2022/11/06 07:46:33;;;;;;;36.70;19.65;;;1.70;99.90;;;;;;5098618;28;20373;-70
2022/11/06 07:48:59;;;;;;;36.80;20.60;;;1.70;99.90;;;;;;5098086;28;20444;-69
2022/11/06 07:51:25;;;;;;;35.10;19.27;;;1.90;99.90;;;;;;5097944;28;21510;-70
2022/11/06 07:53:50;;;;;;;29.00;17.58;;;2.10;99.90;;;;;;5100469;28;20024;-71
2022/11/06 07:56:16;;;;;;;24.20;15.35;;;2.20;99.90;;;;;;5095276;28;20389;-70
2022/11/06 07:58:41;;;;;;;24.80;16.23;;;2.30;99.90;;;;;;5101120;28;20020;-70
2022/11/06 08:01:13;;;;;;;21.85;14.52;;;2.30;99.90;;;;;;5102299;28;20032;-69
2022/11/06 08:03:39;;;;;;;24.73;14.75;;;2.30;99.90;;;;;;5102653;28;20027;-70
2022/11/06 08:06:05;;;;;;;20.40;13.98;;;2.40;99.90;;;;;;5100784;28;20032;-70
2022/11/06 08:08:30;;;;;;;24.00;14.98;;;2.40;99.90;;;;;;5101011;28;20012;-70
2022/11/06 08:11:01;;;;;;;22.63;13.27;;;2.50;99.90;;;;;;5102577;28;20039;-70
2022/11/06 08:13:27;;;;;;;21.23;14.05;;;2.60;99.90;;;;;;5100899;28;20021;-70
2022/11/06 08:15:52;;;;;;;20.27;12.23;;;2.80;99.90;;;;;;5086517;28;20527;-69
2022/11/06 08:18:18;;;;;;;23.23;13.70;;;2.90;99.90;;;;;;5103635;28;20020;-68
2022/11/06 08:20:44;;;;;;;20.38;13.65;;;2.90;99.90;;;;;;5102263;28;20024;-69
2022/11/06 08:23:12;;;;;;;22.80;13.88;;;2.90;99.90;;;;;;5102594;28;20059;-72
2022/11/06 08:25:38;;;;;;;20.85;12.77;;;2.90;99.90;;;;;;5099391;28;20028;-67
2022/11/06 08:28:04;;;;;;;21.80;13.27;;;3.00;99.90;;;;;;5102448;28;20031;-69
2022/11/06 08:30:30;;;;;;;20.48;13.00;;;3.00;99.90;;;;;;5103958;28;20045;-69
2022/11/06 08:33:01;;;;;;;23.25;13.10;;;3.10;99.90;;;;;;5101601;28;20027;-69
2022/11/06 08:35:27;;;;;;;25.40;14.10;;;3.20;99.90;;;;;;5100643;28;20476;-69
2022/11/06 08:37:53;;;;;;;21.33;12.95;;;3.30;99.90;;;;;;5104184;28;20462;-68
2022/11/06 08:40:19;;;;;;;23.02;12.60;;;3.40;99.90;;;;;;5102658;28;20457;-68
2022/11/06 08:42:45;;;;;;;18.20;11.95;;;3.60;99.90;;;;;;5102613;28;20024;-68
2022/11/06 08:45:11;;;;;;;19.52;12.25;;;3.80;99.90;;;;;;5097322;28;20506;-69
2022/11/06 08:47:36;;;;;;;19.48;12.77;;;3.90;99.90;;;;;;5101983;28;20034;-69
2022/11/06 08:50:02;;;;;;;18.27;11.45;;;4.00;99.90;;;;;;5103410;28;20099;-68
2022/11/06 08:52:27;;;;;;;15.48;9.73;;;4.10;99.90;;;;;;5102302;28;20381;-68
2022/11/06 08:54:53;;;;;;;14.30;9.80;;;4.40;99.90;;;;;;5102426;28;20060;-68
2022/11/06 08:57:18;;;;;;;14.43;10.65;;;4.60;99.90;;;;;;5101179;28;20020;-69
2022/11/06 08:59:44;;;;;;;13.45;9.80;;;4.70;99.90;;;;;;5103498;28;20028;-69
2022/11/06 09:02:13;;;;;;;16.83;10.75;;;4.70;99.90;;;;;;5101062;28;20031;-69
2022/11/06 09:04:43;;;;;;;15.05;9.65;;;4.70;99.90;;;;;;5101691;28;20419;-73
2022/11/06 09:07:08;;;;;;;12.63;9.23;;;4.80;99.90;;;;;;5069833;28;20036;-73
2022/11/06 09:09:34;;;;;;;14.70;9.63;;;5.00;99.90;;;;;;5100273;28;20473;-71
2022/11/06 09:12:01;;;;;;;17.02;10.13;;;5.10;99.90;;;;;;5101699;28;20107;-69
2022/11/06 09:14:27;;;;;;;14.65;10.07;;;5.10;99.90;;;;;;5102561;28;20027;-72
2022/11/06 09:16:53;;;;;;;14.18;9.85;;;5.20;99.90;;;;;;5099697;28;20034;-72
2022/11/06 09:19:19;;;;;;;14.00;9.15;;;5.20;99.90;;;;;;5098203;28;20103;-69
2022/11/06 09:21:44;;;;;;;12.85;9.20;;;5.30;99.90;;;;;;5097118;28;20119;-70
2022/11/06 09:24:11;;;;;;;16.70;9.73;;;5.40;99.90;;;;;;5093213;28;20032;-72
2022/11/06 09:26:37;;;;;;;12.65;9.35;;;5.50;99.90;;;;;;5092094;28;20024;-70
2022/11/06 09:29:02;;;;;;;14.07;9.95;;;5.60;99.90;;;;;;5089245;28;20111;-71
2022/11/06 09:31:28;;;;;;;13.10;9.13;;;5.80;99.90;;;;;;5088371;28;20783;-71
2022/11/06 09:33:54;;;;;;;15.25;8.98;;;5.80;99.90;;;;;;5087201;28;20036;-69
2022/11/06 09:36:20;;;;;;;13.40;8.73;;;5.80;99.90;;;;;;5090427;28;20044;-68
2022/11/06 09:38:46;;;;;;;12.98;8.52;;;5.90;99.90;;;;;;5092701;28;20040;-70
2022/11/06 09:41:21;;;;;;;11.32;8.52;;;6.00;99.90;;;;;;5092284;28;20115;-73
2022/11/06 09:44:25;;;;;;;12.32;8.13;;;6.00;99.90;;;;;;5093266;28;20031;-70
2022/11/06 09:46:52;;;;;;;11.65;8.05;;;6.20;99.90;;;;;;5078119;28;20477;-71
2022/11/06 09:49:26;;;;;;;11.48;8.98;;;6.20;99.90;;;;;;5092022;28;20036;-69
2022/11/06 09:51:59;;;;;;;12.25;8.82;;;6.30;99.90;;;;;;5091494;28;20388;-70
2022/11/06 09:54:36;;;;;;;12.13;8.10;;;6.40;99.90;;;;;;5091832;28;20038;-70
2022/11/06 09:57:08;;;;;;;12.45;8.50;;;6.50;99.90;;;;;;5093362;28;20047;-70
2022/11/06 09:59:37;;;;;;;11.75;8.73;;;6.70;99.90;;;;;;5089824;28;20773;-69
2022/11/06 10:02:17;;;;;;;12.13;8.85;;;6.80;99.90;;;;;;5093075;28;20408;-70
2022/11/06 10:05:04;;;;;;;13.93;8.73;;;7.00;99.90;;;;;;5092468;28;20016;-70
2022/11/06 10:07:33;;;;;;;12.15;8.82;;;7.00;99.90;;;;;;5090846;28;20384;-70
2022/11/06 10:10:01;;;;;;;12.45;8.18;;;7.00;99.90;;;;;;5092506;28;20077;-70
2022/11/06 10:12:39;;;;;;;14.23;8.43;;;7.20;99.90;;;;;;5092063;28;20516;-70
2022/11/06 10:15:26;;;;;;;12.95;9.43;;;7.30;99.90;;;;;;5092091;28;20035;-70
2022/11/06 10:18:30;;;;;;;13.27;9.48;;;7.30;99.90;;;;;;5092789;28;20034;-70
2022/11/06 10:21:21;;;;;;;12.40;9.30;;;7.30;99.90;;;;;;5083852;28;20155;-70
2022/11/06 10:24:01;;;;;;;19.02;10.48;;;7.30;99.90;;;;;;5092071;28;20036;-70
2022/11/06 10:26:39;;;;;;;15.80;9.98;;;7.40;99.90;;;;;;5090764;28;20493;-70
2022/11/06 10:29:11;;;;;;;12.35;9.18;;;7.40;99.90;;;;;;5091039;28;20035;-70
2022/11/06 10:31:43;;;;;;;12.88;9.85;;;7.50;99.90;;;;;;5087583;28;20020;-71
2022/11/06 10:34:14;;;;;;;14.90;9.55;;;7.60;99.90;;;;;;5088060;28;20024;-72
2022/11/06 10:36:46;;;;;;;12.52;9.10;;;7.80;99.90;;;;;;5091813;28;20047;-70
2022/11/06 10:39:17;;;;;;;13.65;9.80;;;8.00;99.90;;;;;;5091674;28;20032;-74
2022/11/06 10:41:46;;;;;;;16.90;10.32;;;;;;;;;;5091439;28;20043;-70
2022/11/06 10:44:18;;;;;;;17.20;10.73;;;;;;;;;;5091616;28;20074;-76
2022/11/06 10:47:03;;;;;;;11.00;8.98;;;;;;;;;;5086208;28;20032;-70
2022/11/06 10:49:29;;;;;;;11.45;8.32;;;;;;;;;;5090395;28;20030;-70
2022/11/06 10:51:55;;;;;;;11.80;7.97;;;;;;;;;;5091932;28;20077;-71
2022/11/06 10:54:21;;;;;;;9.98;7.88;;;;;;;;;;5090551;28;20107;-70
2022/11/06 10:56:50;;;;;;;10.43;7.32;;;;;;;;;;5090517;28;20034;-70
2022/11/06 10:59:16;;;;;;;10.82;7.43;;;;;;;;;;5090775;28;20024;-71
2022/11/06 11:01:42;;;;;;;9.32;6.97;;;;;;;;;;5091728;28;20491;-71
2022/11/06 11:04:08;;;;;;;10.15;7.28;;;;;;;;;;5091695;28;20028;-70
2022/11/06 11:06:34;;;;;;;8.70;7.03;;;;;;;;;;5090454;28;20024;-70
2022/11/06 11:09:00;;;;;;;9.10;6.82;;;;;;;;;;5091491;28;20495;-70
2022/11/06 11:11:27;;;;;;;8.57;5.88;;;;;;;;;;5090412;28;20039;-71
2022/11/06 11:13:56;;;;;;;9.23;5.80;;;;;;;;;;5090460;28;20091;-71
2022/11/06 11:16:23;;;;;;;8.60;5.55;;;;;;;;;;5090179;28;20423;-71
2022/11/06 11:18:50;;;;;;;8.13;5.93;;;;;;;;;;5091856;28;20114;-71
2022/11/06 11:21:19;;;;;;;8.10;5.90;;;;;;;;;;5087288;28;20122;-70
2022/11/06 11:23:46;;;;;;;8.75;6.88;;;;;;;;;;5091511;28;20066;-70
2022/11/06 11:26:23;;;;;;;10.95;6.80;;;;;;;;;;5090421;28;20051;-71
2022/11/06 11:28:53;;;;;;;8.00;6.55;;;;;;;;;;5082759;28;20028;-70
2022/11/06 11:31:26;;;;;;;11.20;6.82;;;;;;;;;;5086976;28;20054;-70
2022/11/06 11:33:53;;;;;;;10.52;6.68;;;;;;;;;;5084103;28;20485;-70
2022/11/06 11:36:20;;;;;;;8.82;6.40;;;;;;;;;;5089431;28;20079;-70
2022/11/06 11:38:46;;;;;;;7.18;5.68;;;10.30;99.90;;;;;;5090748;28;20040;-70
2022/11/06 11:41:21;;;;;;;6.82;5.13;;;10.30;99.90;;;;;;5090437;28;20051;-74
2022/11/06 11:44:04;;;;;;;6.55;4.78;;;10.40;99.90;;;;;;5091269;28;20111;-71
2022/11/06 11:46:31;;;;;;;6.47;4.55;;;10.40;99.90;;;;;;5089132;28;20054;-70
2022/11/06 11:48:58;;;;;;;4.95;4.15;;;10.30;99.90;;;;;;5091376;28;20028;-70
2022/11/06 11:51:46;;;;;;;5.93;4.70;;;10.40;99.90;;;;;;5089504;28;20027;-70
2022/11/06 11:54:12;;;;;;;5.47;4.45;;;10.40;99.90;;;;;;5072517;28;20362;-74
2022/11/06 11:57:16;;;;;;;7.20;5.22;;;10.30;99.90;;;;;;5090901;28;20035;-70
2022/11/06 11:59:55;;;;;;;8.40;4.97;;;10.40;99.90;;;;;;5090620;28;20077;-70
2022/11/06 12:02:34;;;;;;;7.32;5.38;;;10.40;99.90;;;;;;5090226;28;20473;-70
2022/11/06 12:05:06;;;;;;;6.60;5.45;;;10.40;99.90;;;;;;5089215;28;20131;-70
2022/11/06 12:07:36;;;;;;;5.72;4.53;;;10.50;99.90;;;;;;5090772;28;20027;-70
2022/11/06 12:10:15;;;;;;;7.30;5.45;;;10.50;99.90;;;;;;5090065;28;20035;-70
2022/11/06 12:12:48;;;;;;;6.82;5.07;;;10.60;99.90;;;;;;5091280;28;20024;-71
2022/11/06 12:15:20;;;;;;;6.20;5.50;;;10.60;99.90;;;;;;5090100;28;20016;-74
2022/11/06 12:17:59;;;;;;;7.28;5.07;;;10.70;99.90;;;;;;5090624;28;20032;-70
2022/11/06 12:20:51;;;;;;;7.28;5.38;;;10.80;99.90;;;;;;5082268;28;20604;-70
2022/11/06 12:23:26;;;;;;;8.73;5.20;;;10.90;99.90;;;;;;5089406;28;20461;-71
2022/11/06 12:26:10;;;;;;;8.18;5.25;;;10.90;99.90;;;;;;5090017;28;20039;-71
2022/11/06 12:28:42;;;;;;;5.80;4.03;;;10.90;99.90;;;;;;5089978;28;20524;-69
2022/11/06 12:31:35;;;;;;;6.47;4.72;;;10.90;99.90;;;;;;5090021;28;20385;-72
2022/11/06 12:34:06;;;;;;;6.72;4.90;;;11.00;99.90;;;;;;5090634;28;20130;-71
2022/11/06 12:36:38;;;;;;;4.63;4.22;;;11.10;99.90;;;;;;5087784;28;20126;-70
2022/11/06 12:39:12;;;;;;;4.38;3.72;;;11.20;99.90;;;;;;5090189;28;20089;-70
2022/11/06 12:41:42;;;;;;;5.68;4.28;;;11.40;99.90;;;;;;5090335;28;20031;-70
2022/11/06 12:44:11;;;;;;;5.82;4.47;;;11.50;99.90;;;;;;5091446;28;20484;-70
2022/11/06 12:47:11;;;;;;;5.60;4.60;;;11.80;99.90;;;;;;5093840;28;20472;-70
2022/11/06 12:49:51;;;;;;;7.82;4.90;;;12.10;99.90;;;;;;5092122;28;20040;-70
2022/11/06 12:52:31;;;;;;;;;;;12.20;99.90;;;;;;5092724;28;20070;-70
2022/11/06 12:55:15;;;;;;;5.78;3.88;;;12.00;99.90;;;;;;5093968;28;19911;-71
2022/11/06 12:58:04;;;;;;;3.58;3.00;;;12.00;99.90;;;;;;5093840;28;20453;-70
2022/11/06 13:00:45;;;;;;;4.57;3.95;;;11.80;99.90;;;;;;5092837;28;20035;-69
2022/11/06 13:03:29;;;;;;;3.80;3.50;;;11.70;99.90;;;;;;5075727;28;20035;-75
2022/11/06 13:06:10;;;;;;;4.22;3.72;;;11.60;99.90;;;;;;5093683;28;20024;-70
2022/11/06 13:08:44;;;;;;;4.78;3.92;;;11.50;99.90;;;;;;5092329;28;20032;-71
2022/11/06 13:11:45;;;;;;;4.57;3.55;;;11.60;99.90;;;;;;5093444;28;20545;-75
2022/11/06 13:14:23;;;;;;;3.80;3.40;;;11.60;99.90;;;;;;5093421;28;20020;-74
2022/11/06 13:17:00;;;;;;;3.67;3.03;;;11.80;99.90;;;;;;5093796;28;20028;-71
2022/11/06 13:20:14;;;;;;;4.10;3.33;;;11.80;99.90;;;;;;5090154;28;20035;-71
2022/11/06 13:22:57;;;;;;;4.03;3.40;;;11.90;99.90;;;;;;5027263;28;20052;-71